Time;durP1;ratioP1;P1;durP2;ratioP2;P2;SDS_P1;SDS_P2;PMS_P1;PMS_P2;Temp;Humidity;BMP_temperature;BMP_pressure;BME280_temperature;BME280_humidity;BME280_pressure;Samples;Min_cycle;Max_cycle;Signal;HPM_P1;HPM_P2
2021/08/29 00:00:07;;;;;;;7.73;4.00;;;13.90;99.90;;;;;;5025732;28;20225;-73
2021/08/29 00:02:34;;;;;;;5.73;4.00;;;13.80;99.90;;;;;;5027544;28;20591;-72
2021/08/29 00:05:01;;;;;;;8.53;4.37;;;13.80;99.90;;;;;;5021449;28;20197;-71
2021/08/29 00:07:29;;;;;;;6.90;3.63;;;13.80;99.90;;;;;;5018824;28;20687;-71
2021/08/29 00:09:57;;;;;;;9.40;4.17;;;13.70;99.90;;;;;;5019484;28;20204;-71
2021/08/29 00:12:24;;;;;;;11.93;5.13;;;13.70;99.90;;;;;;5022256;28;20340;-72
2021/08/29 00:14:51;;;;;;;6.37;4.23;;;13.60;99.90;;;;;;5016165;28;20202;-71
2021/08/29 00:17:17;;;;;;;8.07;5.13;;;13.50;99.90;;;;;;5015435;28;20198;-71
2021/08/29 00:19:44;;;;;;;7.97;4.90;;;13.50;99.90;;;;;;5018370;28;20198;-72
2021/08/29 00:22:11;;;;;;;11.97;6.00;;;13.50;99.90;;;;;;5016914;28;20882;-71
2021/08/29 00:24:38;;;;;;;9.30;5.07;;;13.60;99.90;;;;;;5029075;28;20196;-71
2021/08/29 00:27:06;;;;;;;8.60;4.93;;;13.60;99.90;;;;;;5023211;28;20616;-72
2021/08/29 00:29:33;;;;;;;6.73;4.23;;;13.70;99.90;;;;;;5026046;28;20201;-71
2021/08/29 00:32:00;;;;;;;9.97;5.20;;;13.70;99.90;;;;;;5019710;28;20205;-72
2021/08/29 00:34:27;;;;;;;8.47;5.20;;;13.70;99.90;;;;;;5028142;28;20194;-71
2021/08/29 00:36:54;;;;;;;9.30;5.30;;;13.80;99.90;;;;;;5019561;28;20606;-70
2021/08/29 00:39:21;;;;;;;10.53;5.30;;;13.80;99.90;;;;;;5015389;28;20212;-71
2021/08/29 00:41:48;;;;;;;8.70;5.40;;;13.90;99.90;;;;;;5030156;28;20212;-71
2021/08/29 00:44:16;;;;;;;12.37;6.13;;;13.90;99.90;;;;;;5023055;28;20226;-72
2021/08/29 00:46:44;;;;;;;15.87;6.20;;;13.90;99.90;;;;;;5026219;28;20227;-72
2021/08/29 00:49:12;;;;;;;8.90;5.10;;;13.90;99.90;;;;;;5022926;28;20214;-73
2021/08/29 00:51:38;;;;;;;9.43;5.43;;;13.80;99.90;;;;;;5020109;28;20315;-73
2021/08/29 00:54:05;;;;;;;11.50;5.10;;;13.70;99.90;;;;;;5020826;28;20223;-74
2021/08/29 00:56:32;;;;;;;8.93;5.50;;;13.70;99.90;;;;;;5017147;28;20305;-73
2021/08/29 00:59:00;;;;;;;7.83;5.13;;;13.60;99.90;;;;;;5013692;28;20561;-73
2021/08/29 01:01:37;;;;;;;12.47;5.93;;;13.50;99.90;;;;;;5017864;28;20313;-73
2021/08/29 01:04:09;;;;;;;10.83;6.13;;;13.50;99.90;;;;;;5019074;28;20257;-73
2021/08/29 01:06:44;;;;;;;9.27;5.50;;;13.40;99.90;;;;;;5012634;28;20648;-73
2021/08/29 01:09:13;;;;;;;9.50;6.53;;;13.40;99.90;;;;;;5018992;28;20189;-73
2021/08/29 01:11:44;;;;;;;12.87;6.17;;;13.40;99.90;;;;;;5020281;28;20281;-73
2021/08/29 01:14:13;;;;;;;8.83;5.83;;;13.30;99.90;;;;;;5019982;28;20591;-73
2021/08/29 01:16:46;;;;;;;9.93;5.60;;;13.30;99.90;;;;;;5023932;28;20222;-73
2021/08/29 01:19:17;;;;;;;11.03;6.23;;;13.30;99.90;;;;;;5014958;28;20320;-74
2021/08/29 01:21:47;;;;;;;11.17;6.13;;;13.40;99.90;;;;;;5016510;28;20197;-73
2021/08/29 01:24:17;;;;;;;10.00;5.97;;;13.40;99.90;;;;;;5022704;28;20240;-74
2021/08/29 01:26:50;;;;;;;9.50;5.70;;;13.40;99.90;;;;;;5012640;28;20201;-73
2021/08/29 01:29:23;;;;;;;8.87;5.47;;;13.40;99.90;;;;;;5018151;28;20208;-74
2021/08/29 01:31:51;;;;;;;8.87;5.47;;;13.40;99.90;;;;;;5012634;28;20285;-73
2021/08/29 01:34:19;;;;;;;14.13;5.93;;;13.50;99.90;;;;;;5014438;28;20205;-74
2021/08/29 01:36:49;;;;;;;10.77;6.30;;;13.60;99.90;;;;;;5018815;28;20236;-73
2021/08/29 01:39:17;;;;;;;12.03;6.07;;;13.70;99.90;;;;;;5016646;28;20214;-73
2021/08/29 01:41:49;;;;;;;14.53;6.10;;;13.80;99.90;;;;;;5024060;28;20288;-73
2021/08/29 01:44:17;;;;;;;11.27;5.67;;;13.80;99.90;;;;;;5015127;28;20225;-73
2021/08/29 01:46:45;;;;;;;8.77;5.97;;;13.80;99.90;;;;;;5015702;28;20200;-73
2021/08/29 01:49:13;;;;;;;11.43;6.23;;;13.80;99.90;;;;;;5011740;28;20191;-72
2021/08/29 01:51:41;;;;;;;11.83;5.80;;;13.90;99.90;;;;;;5021196;28;20210;-73
2021/08/29 01:54:09;;;;;;;12.00;5.80;;;14.00;99.90;;;;;;5013853;28;20205;-73
2021/08/29 01:56:56;;;;;;;9.43;5.43;;;14.00;99.90;;;;;;5014659;28;20198;-73
2021/08/29 01:59:23;;;;;;;11.63;5.87;;;14.00;99.90;;;;;;5013234;28;20198;-73
2021/08/29 02:01:52;;;;;;;13.40;5.50;;;14.00;99.90;;;;;;5019936;28;20281;-73
2021/08/29 02:04:19;;;;;;;10.60;4.83;;;14.10;99.90;;;;;;5016332;28;20225;-73
2021/08/29 02:06:51;;;;;;;11.60;5.83;;;14.10;99.90;;;;;;5019553;28;20237;-73
2021/08/29 02:09:20;;;;;;;8.90;5.30;;;14.10;99.90;;;;;;5017283;28;20246;-73
2021/08/29 02:11:52;;;;;;;7.90;4.70;;;14.10;99.90;;;;;;5013115;28;20715;-73
2021/08/29 02:14:24;;;;;;;9.73;5.17;;;14.10;99.90;;;;;;5012113;28;20217;-72
2021/08/29 02:16:54;;;;;;;11.83;5.17;;;14.10;99.90;;;;;;5011206;28;20205;-72
2021/08/29 02:19:26;;;;;;;8.50;4.83;;;14.20;99.90;;;;;;5019995;28;20208;-73
2021/08/29 02:21:53;;;;;;;14.07;5.33;;;14.20;99.90;;;;;;5014194;28;20201;-72
2021/08/29 02:24:23;;;;;;;11.77;4.90;;;14.20;99.90;;;;;;5015552;28;20229;-74
2021/08/29 02:26:50;;;;;;;9.43;4.90;;;14.20;99.90;;;;;;5012424;28;20209;-74
2021/08/29 02:29:18;;;;;;;8.87;5.00;;;14.20;99.90;;;;;;5012735;28;20196;-73
2021/08/29 02:31:46;;;;;;;6.80;4.53;;;14.20;99.90;;;;;;5015885;28;20301;-74
2021/08/29 02:34:17;;;;;;;9.30;5.13;;;14.20;99.90;;;;;;5014311;28;20756;-72
2021/08/29 02:36:46;;;;;;;9.97;5.27;;;14.20;99.90;;;;;;5014989;28;20205;-72
2021/08/29 02:39:14;;;;;;;9.53;4.93;;;14.20;99.90;;;;;;5019921;28;20197;-72
2021/08/29 02:41:42;;;;;;;8.80;5.43;;;14.20;99.90;;;;;;5018377;28;20297;-72
2021/08/29 02:44:11;;;;;;;9.00;5.33;;;14.20;99.90;;;;;;5016463;28;20217;-73
2021/08/29 02:46:38;;;;;;;9.13;5.67;;;14.30;99.90;;;;;;5012450;28;20225;-72
2021/08/29 02:49:06;;;;;;;10.10;5.40;;;14.30;99.90;;;;;;5016734;28;20224;-74
2021/08/29 02:51:35;;;;;;;11.23;6.07;;;14.40;99.90;;;;;;5019933;28;20248;-72
2021/08/29 02:54:02;;;;;;;6.10;4.90;;;14.40;99.90;;;;;;5021097;28;20284;-74
2021/08/29 02:56:31;;;;;;;12.60;5.67;;;14.40;99.90;;;;;;5018307;28;20659;-72
2021/08/29 02:58:58;;;;;;;12.37;5.50;;;14.50;99.90;;;;;;5010128;28;20616;-72
2021/08/29 03:01:25;;;;;;;14.10;5.63;;;14.50;99.90;;;;;;5017821;28;20292;-73
2021/08/29 03:03:52;;;;;;;10.03;5.33;;;14.50;99.90;;;;;;5013606;28;20226;-73
2021/08/29 03:06:19;;;;;;;9.00;5.13;;;14.50;99.90;;;;;;5019324;28;20208;-72
2021/08/29 03:08:48;;;;;;;8.70;5.20;;;14.60;99.90;;;;;;5014222;28;20243;-73
2021/08/29 03:11:16;;;;;;;10.07;5.40;;;14.60;99.90;;;;;;5014295;28;20213;-72
2021/08/29 03:13:43;;;;;;;9.67;5.23;;;14.60;99.90;;;;;;5010952;28;20244;-72
2021/08/29 03:16:10;;;;;;;9.70;5.00;;;14.60;99.90;;;;;;5018060;28;20201;-74
2021/08/29 03:18:40;;;;;;;10.30;4.80;;;14.60;99.90;;;;;;5010867;28;20204;-73
2021/08/29 03:21:07;;;;;;;7.93;4.87;;;14.60;99.90;;;;;;5011339;28;20201;-72
2021/08/29 03:23:34;;;;;;;7.40;4.67;;;14.70;99.90;;;;;;5017666;28;20235;-73
2021/08/29 03:26:03;;;;;;;12.53;5.50;;;14.70;99.90;;;;;;5009687;28;20241;-72
2021/08/29 03:28:30;;;;;;;8.47;4.97;;;14.70;99.90;;;;;;5018701;28;21063;-73
2021/08/29 03:30:57;;;;;;;11.93;5.60;;;14.70;99.90;;;;;;5014020;28;20234;-73
2021/08/29 03:33:25;;;;;;;7.43;4.70;;;14.60;99.90;;;;;;5011121;28;20224;-73
2021/08/29 03:35:53;;;;;;;7.43;4.83;;;14.60;99.90;;;;;;5014008;28;20202;-73
2021/08/29 03:38:22;;;;;;;10.00;5.57;;;14.60;99.90;;;;;;5023248;28;20200;-73
2021/08/29 03:40:51;;;;;;;9.30;5.20;;;14.60;99.90;;;;;;5018076;28;20214;-71
2021/08/29 03:43:20;;;;;;;7.47;4.88;;;14.60;99.90;;;;;;5017066;28;20479;-72
2021/08/29 03:45:48;;;;;;;11.27;5.67;;;14.60;99.90;;;;;;5018262;28;20289;-72
2021/08/29 03:48:15;;;;;;;9.77;5.33;;;14.60;99.90;;;;;;5011020;28;20285;-72
2021/08/29 03:50:45;;;;;;;11.67;4.53;;;14.50;99.90;;;;;;5023209;28;20763;-73
2021/08/29 03:53:12;;;;;;;10.10;5.10;;;14.50;99.90;;;;;;5011652;28;20768;-72
2021/08/29 03:55:43;;;;;;;10.43;5.00;;;14.50;99.90;;;;;;5015555;28;20624;-73
2021/08/29 03:58:10;;;;;;;8.67;5.10;;;14.40;99.90;;;;;;5022351;28;20252;-72
2021/08/29 04:00:38;;;;;;;12.07;5.23;;;14.40;99.90;;;;;;5011316;28;20779;-73
2021/08/29 04:03:06;;;;;;;11.17;4.83;;;14.40;99.90;;;;;;5013554;28;20194;-71
2021/08/29 04:05:33;;;;;;;9.97;5.30;;;14.40;99.90;;;;;;5016303;28;20198;-72
2021/08/29 04:08:01;;;;;;;11.67;5.20;;;14.40;99.90;;;;;;5016997;28;20296;-71
2021/08/29 04:10:29;;;;;;;12.27;5.43;;;14.40;99.90;;;;;;5020309;28;20272;-73
2021/08/29 04:12:56;;;;;;;13.87;5.37;;;14.50;99.90;;;;;;5008922;28;20253;-72
2021/08/29 04:15:24;;;;;;;8.17;5.23;;;14.50;99.90;;;;;;5010860;28;20222;-71
2021/08/29 04:17:53;;;;;;;9.00;5.55;;;14.50;99.90;;;;;;5016190;28;20217;-73
2021/08/29 04:20:20;;;;;;;12.00;5.60;;;14.60;99.90;;;;;;5021305;28;20200;-73
2021/08/29 04:22:48;;;;;;;10.10;5.37;;;14.60;99.90;;;;;;5010870;28;20248;-73
2021/08/29 04:25:18;;;;;;;12.73;5.87;;;14.60;99.90;;;;;;5018999;28;20264;-73
2021/08/29 04:27:45;;;;;;;12.10;6.20;;;14.70;99.90;;;;;;5014498;28;20583;-73
2021/08/29 04:30:13;;;;;;;10.83;5.73;;;14.70;99.90;;;;;;5021819;28;20194;-72
2021/08/29 04:32:45;;;;;;;10.73;5.50;;;14.70;99.90;;;;;;5031898;28;20209;-72
2021/08/29 04:35:13;;;;;;;9.77;5.13;;;14.70;99.90;;;;;;5019667;28;20249;-71
2021/08/29 04:37:40;;;;;;;8.73;5.47;;;14.70;99.90;;;;;;5014505;28;20720;-73
2021/08/29 04:40:08;;;;;;;10.98;5.25;;;14.70;99.90;;;;;;5021816;28;20652;-73
2021/08/29 04:42:35;;;;;;;9.82;5.47;;;14.70;99.90;;;;;;5032489;28;20240;-72
2021/08/29 04:45:02;;;;;;;11.67;5.67;;;14.70;99.90;;;;;;5025509;28;20225;-72
2021/08/29 04:47:29;;;;;;;9.33;5.33;;;14.70;99.90;;;;;;5023310;28;20197;-72
2021/08/29 04:49:55;;;;;;;10.00;5.60;;;14.80;99.90;;;;;;5031545;28;20209;-72
2021/08/29 04:52:24;;;;;;;10.20;5.93;;;14.80;99.90;;;;;;5014338;28;20195;-72
2021/08/29 04:54:51;;;;;;;11.27;6.17;;;14.80;99.90;;;;;;5013631;28;20232;-72
2021/08/29 04:57:17;;;;;;;12.60;5.17;;;14.80;99.90;;;;;;5014748;28;20277;-72
2021/08/29 04:59:44;;;;;;;12.40;4.70;;;14.80;99.90;;;;;;5018972;28;20724;-72
2021/08/29 05:02:11;;;;;;;11.90;5.53;;;14.80;99.90;;;;;;5014840;28;20203;-72
2021/08/29 05:04:38;;;;;;;9.20;5.93;;;14.80;99.90;;;;;;5017174;28;20262;-72
2021/08/29 05:07:05;;;;;;;10.70;5.87;;;14.90;99.90;;;;;;5016603;28;20203;-72
2021/08/29 05:09:33;;;;;;;11.73;5.80;;;14.90;99.90;;;;;;5020778;28;20201;-72
2021/08/29 05:12:00;;;;;;;12.32;5.40;;;14.90;99.90;;;;;;5022910;28;20228;-72
2021/08/29 05:14:27;;;;;;;11.67;5.80;;;14.90;99.90;;;;;;5010988;28;20197;-72
2021/08/29 05:16:54;;;;;;;9.87;5.67;;;14.90;99.90;;;;;;5021981;28;20244;-72
2021/08/29 05:19:21;;;;;;;11.33;5.57;;;14.90;99.90;;;;;;5021962;28;20201;-72
2021/08/29 05:21:48;;;;;;;10.33;6.83;;;14.90;99.90;;;;;;5012648;28;20241;-73
2021/08/29 05:24:15;;;;;;;12.07;6.20;;;14.90;99.90;;;;;;5012698;28;20224;-72
2021/08/29 05:26:43;;;;;;;11.15;5.80;;;15.00;99.90;;;;;;5012358;28;20286;-72
2021/08/29 05:29:10;;;;;;;9.10;5.50;;;15.00;99.90;;;;;;5018930;28;20284;-71
2021/08/29 05:31:37;;;;;;;12.20;5.85;;;15.00;99.90;;;;;;5020637;28;20284;-71
2021/08/29 05:34:04;;;;;;;10.90;5.33;;;15.00;99.90;;;;;;5012695;28;20198;-71
2021/08/29 05:36:31;;;;;;;11.25;5.57;;;15.00;99.90;;;;;;5011166;28;20672;-72
2021/08/29 05:38:58;;;;;;;14.00;6.65;;;15.00;99.90;;;;;;5019336;28;20217;-72
2021/08/29 05:41:25;;;;;;;10.57;5.83;;;15.10;99.90;;;;;;5016731;28;20305;-71
2021/08/29 05:43:53;;;;;;;12.63;5.40;;;15.10;99.90;;;;;;5015113;28;20337;-72
2021/08/29 05:46:20;;;;;;;10.77;5.38;;;15.20;99.90;;;;;;5019961;28;20285;-71
2021/08/29 05:48:49;;;;;;;10.68;5.38;;;15.20;99.90;;;;;;5014335;28;20225;-71
2021/08/29 05:51:16;;;;;;;8.73;5.50;;;15.20;99.90;;;;;;5021533;28;20691;-72
2021/08/29 05:53:43;;;;;;;10.05;5.28;;;15.20;99.90;;;;;;5032041;28;20194;-73
2021/08/29 05:56:10;;;;;;;8.57;5.35;;;15.30;99.90;;;;;;5029255;28;20229;-72
2021/08/29 05:58:37;;;;;;;7.63;4.95;;;15.30;99.90;;;;;;5031578;28;20221;-72
2021/08/29 06:01:05;;;;;;;8.68;5.00;;;15.30;99.90;;;;;;5021899;28;20563;-72
2021/08/29 06:03:37;;;;;;;9.93;5.20;;;15.30;99.90;;;;;;5020227;28;20190;-72
2021/08/29 06:06:04;;;;;;;12.03;5.20;;;15.30;99.90;;;;;;5029227;28;20676;-71
2021/08/29 06:08:31;;;;;;;9.73;4.70;;;15.40;99.90;;;;;;5015577;28;20498;-73
2021/08/29 06:10:58;;;;;;;9.05;5.20;;;15.40;99.90;;;;;;5018835;28;20672;-72
2021/08/29 06:13:25;;;;;;;8.30;4.68;;;15.40;99.90;;;;;;5015689;28;20204;-73
2021/08/29 06:15:53;;;;;;;5.70;4.25;;;15.40;99.90;;;;;;5021694;28;20642;-73
2021/08/29 06:18:21;;;;;;;10.43;4.85;;;15.50;99.90;;;;;;5016793;28;20641;-73
2021/08/29 06:20:48;;;;;;;7.07;4.15;;;15.60;99.90;;;;;;5027371;28;20193;-73
2021/08/29 06:23:15;;;;;;;8.98;4.55;;;15.70;99.90;;;;;;5019632;28;20305;-71
2021/08/29 06:25:42;;;;;;;8.20;4.78;;;15.80;99.90;;;;;;5025914;28;20245;-72
2021/08/29 06:28:09;;;;;;;9.85;4.35;;;15.90;99.90;;;;;;5024833;28;20293;-72
2021/08/29 06:30:36;;;;;;;7.38;4.07;;;15.90;99.90;;;;;;5023715;28;20225;-73
2021/08/29 06:33:03;;;;;;;14.07;4.50;;;15.90;99.90;;;;;;5027489;28;20194;-73
2021/08/29 06:35:31;;;;;;;7.82;4.45;;;15.90;99.90;;;;;;5023857;28;20200;-72
2021/08/29 06:37:58;;;;;;;12.52;4.80;;;16.00;99.90;;;;;;5020501;28;20292;-72
2021/08/29 06:40:25;;;;;;;8.05;4.28;;;16.00;99.90;;;;;;5025105;28;20200;-72
2021/08/29 06:42:51;;;;;;;9.40;5.22;;;16.00;99.90;;;;;;5021497;28;20220;-72
2021/08/29 06:45:18;;;;;;;7.13;4.60;;;16.00;99.90;;;;;;5015853;28;20677;-72
2021/08/29 06:47:45;;;;;;;8.95;4.90;;;16.10;99.90;;;;;;5021272;28;20193;-72
2021/08/29 06:50:12;;;;;;;8.50;4.25;;;16.20;99.90;;;;;;5015285;28;20195;-72
2021/08/29 06:52:40;;;;;;;7.88;4.18;;;16.20;99.90;;;;;;5012246;28;20302;-73
2021/08/29 06:55:08;;;;;;;12.73;4.90;;;16.30;99.90;;;;;;5014464;28;20198;-72
2021/08/29 06:57:35;;;;;;;8.85;4.88;;;16.30;99.90;;;;;;5019950;28;20288;-71
2021/08/29 07:00:02;;;;;;;8.00;4.22;;;16.30;99.90;;;;;;5028773;28;20292;-72
2021/08/29 07:02:29;;;;;;;7.72;4.13;;;16.30;99.90;;;;;;5024680;28;20189;-71
2021/08/29 07:04:57;;;;;;;8.77;4.22;;;16.40;99.90;;;;;;5028594;28;20316;-70
2021/08/29 07:07:24;;;;;;;6.60;4.15;;;16.40;99.90;;;;;;5027579;28;20241;-71
2021/08/29 07:09:52;;;;;;;6.95;4.20;;;16.50;99.90;;;;;;5016443;28;20282;-71
2021/08/29 07:12:19;;;;;;;10.23;5.07;;;16.40;99.90;;;;;;5013958;28;20638;-71
2021/08/29 07:14:47;;;;;;;8.63;4.28;;;16.40;99.90;;;;;;5014416;28;20198;-72
2021/08/29 07:17:14;;;;;;;6.18;4.07;;;16.40;99.90;;;;;;5012845;28;20197;-73
2021/08/29 07:19:41;;;;;;;8.73;4.40;;;16.50;99.90;;;;;;5021074;28;20232;-72
2021/08/29 07:22:08;;;;;;;6.78;4.00;;;16.40;99.90;;;;;;5011910;28;20248;-73
2021/08/29 07:24:35;;;;;;;9.93;4.22;;;16.30;99.90;;;;;;5015610;28;20312;-72
2021/08/29 07:27:04;;;;;;;7.93;4.15;;;16.20;99.90;;;;;;5011352;28;20200;-72
2021/08/29 07:29:32;;;;;;;8.27;4.20;;;16.20;99.90;;;;;;5017379;28;20194;-72
2021/08/29 07:31:59;;;;;;;11.57;4.00;;;16.10;99.90;;;;;;5015579;28;20194;-73
2021/08/29 07:34:26;;;;;;;9.05;4.22;;;16.20;99.90;;;;;;5013097;28;20204;-73
2021/08/29 07:36:53;;;;;;;8.00;3.50;;;16.20;99.90;;;;;;5010020;28;20213;-73
2021/08/29 07:39:20;;;;;;;7.95;3.22;;;16.30;99.90;;;;;;5009853;28;20202;-73
2021/08/29 07:41:47;;;;;;;8.77;3.47;;;16.30;99.90;;;;;;5015800;28;20194;-73
2021/08/29 07:44:15;;;;;;;7.60;3.53;;;16.40;99.90;;;;;;5011509;28;20221;-74
2021/08/29 07:46:42;;;;;;;8.60;4.10;;;16.40;99.90;;;;;;5025405;28;20821;-73
2021/08/29 07:49:09;;;;;;;7.97;3.30;;;16.40;99.90;;;;;;5018262;28;20302;-73
2021/08/29 07:51:36;;;;;;;9.45;3.10;;;16.50;99.90;;;;;;5018805;28;20220;-73
2021/08/29 07:54:03;;;;;;;8.68;2.65;;;16.70;99.90;;;;;;5016522;28;20608;-73
2021/08/29 07:56:30;;;;;;;8.18;2.95;;;16.80;99.90;;;;;;5019070;28;20628;-71
2021/08/29 07:58:56;;;;;;;6.85;2.80;;;17.00;99.90;;;;;;5011928;28;22090;-71
2021/08/29 08:01:25;;;;;;;6.10;2.70;;;17.00;99.90;;;;;;5018134;28;20208;-71
2021/08/29 08:03:51;;;;;;;5.65;2.75;;;17.10;99.90;;;;;;5015215;28;20198;-71
2021/08/29 08:06:18;;;;;;;5.03;2.13;;;17.10;99.90;;;;;;5018471;28;20240;-73
2021/08/29 08:08:45;;;;;;;7.55;3.22;;;17.10;99.90;;;;;;5020161;28;20265;-73
2021/08/29 08:11:12;;;;;;;7.70;2.90;;;17.10;99.90;;;;;;5020888;28;20237;-72
2021/08/29 08:13:39;;;;;;;6.50;2.85;;;17.10;99.90;;;;;;5015215;28;20281;-73
2021/08/29 08:16:06;;;;;;;7.65;3.28;;;17.00;99.90;;;;;;5021959;28;20213;-73
2021/08/29 08:18:34;;;;;;;7.15;2.60;;;17.00;99.90;;;;;;5015222;28;20577;-73
2021/08/29 08:21:01;;;;;;;5.97;2.60;;;17.00;99.90;;;;;;5019302;28;22216;-72
2021/08/29 08:23:28;;;;;;;6.80;2.55;;;17.10;99.90;;;;;;5022968;28;20879;-73
2021/08/29 08:25:55;;;;;;;7.65;3.05;;;17.10;99.90;;;;;;5016251;28;20296;-74
2021/08/29 08:28:22;;;;;;;8.15;2.58;;;17.30;99.90;;;;;;5029149;28;20194;-72
2021/08/29 08:30:49;;;;;;;6.63;2.60;;;17.20;99.90;;;;;;5017580;28;20285;-72
2021/08/29 08:33:16;;;;;;;7.72;2.80;;;17.20;99.90;;;;;;5022044;28;20198;-72
2021/08/29 08:35:44;;;;;;;11.27;3.00;;;17.20;99.90;;;;;;5018744;28;20200;-72
2021/08/29 08:38:11;;;;;;;7.10;3.55;;;17.10;99.90;;;;;;5018690;28;20197;-72
2021/08/29 08:40:41;;;;;;;9.18;3.47;;;17.00;99.90;;;;;;5017342;28;20305;-73
2021/08/29 08:43:08;;;;;;;8.95;3.35;;;17.00;99.90;;;;;;5022606;28;20309;-70
2021/08/29 08:45:36;;;;;;;8.68;3.38;;;17.30;99.90;;;;;;5015627;28;20226;-72
2021/08/29 08:48:05;;;;;;;8.15;3.30;;;17.60;99.90;;;;;;5012840;28;20271;-72
2021/08/29 08:50:34;;;;;;;5.30;3.38;;;17.80;99.90;;;;;;5014316;28;20248;-71
2021/08/29 08:53:04;;;;;;;8.25;3.00;;;17.60;99.90;;;;;;5022221;28;20248;-71
2021/08/29 08:55:31;;;;;;;9.02;3.58;;;17.80;99.90;;;;;;5013170;28;20284;-72
2021/08/29 08:57:59;;;;;;;5.78;2.85;;;17.90;99.90;;;;;;5014589;28;20225;-72
2021/08/29 09:00:26;;;;;;;8.05;3.20;;;18.30;99.90;;;;;;5017213;28;20213;-72
2021/08/29 09:02:53;;;;;;;8.40;3.13;;;18.30;99.90;;;;;;5019935;28;20651;-73
2021/08/29 09:05:21;;;;;;;7.80;2.83;;;18.40;99.90;;;;;;5015066;28;20596;-71
2021/08/29 09:07:48;;;;;;;11.15;3.22;;;18.00;99.90;;;;;;5017133;28;20820;-71
2021/08/29 09:10:16;;;;;;;8.20;2.78;;;18.00;99.90;;;;;;5012554;28;20206;-72
2021/08/29 09:12:57;;;;;;;7.95;3.30;;;18.10;99.90;;;;;;5013667;28;20208;-78
2021/08/29 09:15:25;;;;;;;9.85;3.00;;;18.10;99.90;;;;;;5015670;28;20307;-72
2021/08/29 09:17:52;;;;;;;10.82;2.83;;;18.00;99.90;;;;;;5017476;28;20400;-72
2021/08/29 09:20:24;;;;;;;7.55;2.90;;;18.10;99.90;;;;;;5015614;28;20198;-73
2021/08/29 09:22:54;;;;;;;6.85;3.15;;;18.20;99.90;;;;;;5016622;28;20197;-73
2021/08/29 09:25:24;;;;;;;7.88;3.13;;;17.90;99.90;;;;;;5014473;28;20603;-72
2021/08/29 09:27:52;;;;;;;6.85;2.97;;;17.70;99.90;;;;;;5011266;28;20285;-71
2021/08/29 09:30:20;;;;;;;6.22;2.85;;;17.70;99.90;;;;;;5019959;28;20618;-71
2021/08/29 09:32:49;;;;;;;6.95;2.35;;;17.80;99.90;;;;;;5011310;28;20190;-71
2021/08/29 09:35:17;;;;;;;5.18;2.40;;;17.80;99.90;;;;;;5013474;28;20207;-74
2021/08/29 09:37:44;;;;;;;5.63;2.90;;;17.90;99.90;;;;;;5011234;28;20284;-72
2021/08/29 09:40:15;;;;;;;7.28;3.30;;;18.10;99.90;;;;;;5011614;28;20294;-71
2021/08/29 09:42:45;;;;;;;7.45;2.90;;;18.20;99.90;;;;;;5014061;28;20670;-73
2021/08/29 09:45:21;;;;;;;5.68;2.35;;;18.20;99.90;;;;;;5017214;28;20305;-73
2021/08/29 09:47:48;;;;;;;11.32;2.70;;;18.40;99.90;;;;;;5016062;28;20189;-73
2021/08/29 09:50:16;;;;;;;8.82;2.85;;;18.10;99.90;;;;;;5019097;28;20202;-73
2021/08/29 09:52:43;;;;;;;9.93;3.00;;;18.00;99.90;;;;;;5013047;28;20299;-72
2021/08/29 09:55:11;;;;;;;9.65;3.05;;;17.70;99.90;;;;;;5012599;28;20198;-72
2021/08/29 09:57:38;;;;;;;5.35;2.55;;;18.00;99.90;;;;;;5011880;28;20583;-73
2021/08/29 10:00:10;;;;;;;10.23;2.97;;;18.00;99.90;;;;;;5011782;28;20315;-73
2021/08/29 10:02:37;;;;;;;8.25;2.90;;;18.10;99.90;;;;;;5017493;28;20199;-73
2021/08/29 10:05:15;;;;;;;7.78;2.60;;;18.10;99.90;;;;;;5014218;28;20370;-72
2021/08/29 10:08:04;;;;;;;5.95;2.45;;;18.10;99.90;;;;;;5019503;28;20226;-73
2021/08/29 10:10:33;;;;;;;5.35;2.38;;;18.10;99.90;;;;;;5015463;28;20213;-73
2021/08/29 10:13:02;;;;;;;4.72;2.47;;;17.90;99.90;;;;;;5015564;28;20200;-73
2021/08/29 10:15:32;;;;;;;7.10;2.88;;;17.90;99.90;;;;;;5017152;28;20359;-72
2021/08/29 10:18:00;;;;;;;8.07;2.60;;;17.90;99.90;;;;;;5009922;28;20204;-73
2021/08/29 10:20:30;;;;;;;4.80;2.30;;;17.80;99.90;;;;;;5010602;28;20202;-73
2021/08/29 10:22:58;;;;;;;7.38;2.45;;;17.70;99.90;;;;;;5012731;28;20194;-73
2021/08/29 10:25:25;;;;;;;4.45;2.38;;;17.80;99.90;;;;;;5015126;28;20218;-72
2021/08/29 10:28:01;;;;;;;5.57;2.28;;;17.60;99.90;;;;;;5015872;28;20194;-73
2021/08/29 10:30:31;;;;;;;6.20;2.40;;;17.50;99.90;;;;;;5016440;28;20278;-75
2021/08/29 10:33:03;;;;;;;4.57;2.13;;;17.40;99.90;;;;;;5012218;28;20588;-74
2021/08/29 10:35:30;;;;;;;8.95;3.03;;;17.30;99.90;;;;;;5015726;28;21465;-75
2021/08/29 10:37:58;;;;;;;8.30;2.42;;;17.40;99.90;;;;;;5013392;28;20230;-75
2021/08/29 10:40:25;;;;;;;5.97;2.20;;;17.50;99.90;;;;;;5014411;28;20309;-74
2021/08/29 10:42:53;;;;;;;8.55;2.30;;;17.60;99.90;;;;;;5011653;28;20313;-72
2021/08/29 10:45:20;;;;;;;7.28;2.50;;;17.70;99.90;;;;;;5014078;28;20226;-73
2021/08/29 10:47:49;;;;;;;11.05;2.78;;;18.10;99.90;;;;;;5017075;28;20213;-73
2021/08/29 10:50:19;;;;;;;5.57;1.85;;;18.40;99.90;;;;;;5012865;28;20237;-73
2021/08/29 10:52:46;;;;;;;6.28;2.90;;;18.60;99.90;;;;;;5010359;28;20565;-73
2021/08/29 10:55:18;;;;;;;7.05;2.65;;;18.60;99.90;;;;;;5010208;28;20226;-72
2021/08/29 10:57:46;;;;;;;4.68;2.15;;;18.70;99.90;;;;;;5011939;28;20205;-73
2021/08/29 11:00:17;;;;;;;8.55;2.40;;;18.70;99.90;;;;;;5013361;28;20296;-73
2021/08/29 11:02:45;;;;;;;6.38;2.50;;;18.70;99.90;;;;;;5012602;28;20244;-71
2021/08/29 11:05:17;;;;;;;4.68;2.10;;;18.60;99.90;;;;;;5013324;28;20201;-72
2021/08/29 11:07:53;;;;;;;8.57;2.50;;;18.60;99.90;;;;;;5014898;28;20226;-74
2021/08/29 11:10:45;;;;;;;4.55;1.77;;;18.50;99.90;;;;;;5009409;28;20198;-74
2021/08/29 11:13:41;;;;;;;7.28;2.42;;;18.00;99.90;;;;;;5015550;28;20303;-74
2021/08/29 11:16:24;;;;;;;10.98;2.58;;;17.80;99.90;;;;;;5011780;28;20233;-74
2021/08/29 11:19:17;;;;;;;5.68;1.83;;;18.00;99.90;;;;;;5010289;28;20190;-74
2021/08/29 11:22:18;;;;;;;8.38;2.08;;;17.90;99.90;;;;;;5010602;28;20208;-73
2021/08/29 11:24:59;;;;;;;5.78;2.15;;;18.00;99.90;;;;;;5010265;28;20218;-73
2021/08/29 11:28:01;;;;;;;7.90;2.05;;;18.00;99.90;;;;;;5008501;28;20225;-72
2021/08/29 11:30:42;;;;;;;5.47;2.00;;;18.00;99.90;;;;;;5015251;28;20630;-73
2021/08/29 11:33:11;;;;;;;7.00;2.35;;;18.10;99.90;;;;;;5010489;28;20198;-73
2021/08/29 11:35:45;;;;;;;7.55;2.20;;;18.10;99.90;;;;;;5008622;28;20684;-72
2021/08/29 11:38:17;;;;;;;5.78;2.17;;;18.20;99.90;;;;;;5010334;28;20194;-74
2021/08/29 11:41:00;;;;;;;7.45;2.40;;;18.10;99.90;;;;;;5015929;28;20229;-73
2021/08/29 11:43:38;;;;;;;8.35;2.10;;;18.00;99.90;;;;;;5018057;28;20190;-73
2021/08/29 11:46:14;;;;;;;6.80;2.40;;;18.00;99.90;;;;;;5011733;28;20222;-73
2021/08/29 11:48:52;;;;;;;6.38;2.53;;;18.00;99.90;;;;;;5019527;28;20221;-71
2021/08/29 11:51:28;;;;;;;7.53;3.40;;;17.90;99.90;;;;;;5012623;28;20217;-73
2021/08/29 11:53:56;;;;;;;8.43;2.53;;;17.70;99.90;;;;;;5015155;28;20193;-72
2021/08/29 11:56:28;;;;;;;7.80;2.20;;;17.70;99.90;;;;;;5014076;28;20285;-71
2021/08/29 11:58:55;;;;;;;5.30;2.15;;;17.80;99.90;;;;;;5016636;28;20217;-73
2021/08/29 12:01:24;;;;;;;5.55;2.30;;;17.80;99.90;;;;;;5018016;28;20289;-73
2021/08/29 12:03:55;;;;;;;6.57;2.25;;;17.80;99.90;;;;;;5021023;28;20218;-73
2021/08/29 12:06:27;;;;;;;6.38;2.40;;;17.70;99.90;;;;;;5024422;28;20221;-72
2021/08/29 12:09:07;;;;;;;9.95;2.97;;;17.70;99.90;;;;;;5020062;28;20304;-72
2021/08/29 12:11:35;;;;;;;7.30;2.33;;;17.60;99.90;;;;;;5018731;28;20213;-72
2021/08/29 12:14:14;;;;;;;9.20;2.67;;;17.20;99.90;;;;;;5021142;28;20293;-74
2021/08/29 12:16:47;;;;;;;6.80;2.65;;;17.10;99.90;;;;;;5019680;28;20580;-74
2021/08/29 12:19:16;;;;;;;4.60;2.50;;;16.90;99.90;;;;;;5016212;28;20258;-73
2021/08/29 12:21:44;;;;;;;5.43;2.40;;;16.80;99.90;;;;;;5016046;28;20283;-73
2021/08/29 12:24:14;;;;;;;5.82;2.50;;;16.80;99.90;;;;;;5016245;28;20217;-75
2021/08/29 12:26:44;;;;;;;6.65;2.63;;;16.70;99.90;;;;;;5020614;28;20303;-77
2021/08/29 12:29:12;;;;;;;6.25;2.65;;;16.80;99.90;;;;;;5020081;28;20834;-73
2021/08/29 12:31:40;;;;;;;9.80;2.70;;;16.80;99.90;;;;;;5021717;28;20201;-73
2021/08/29 12:34:08;;;;;;;7.43;2.33;;;16.90;99.90;;;;;;5020114;28;20237;-72
2021/08/29 12:36:36;;;;;;;5.57;2.00;;;16.80;99.90;;;;;;5022195;28;20289;-71
2021/08/29 12:39:10;;;;;;;4.82;2.05;;;16.70;99.90;;;;;;5018748;28;20217;-73
2021/08/29 12:41:41;;;;;;;6.70;2.17;;;16.70;99.90;;;;;;5023179;28;20298;-73
2021/08/29 12:44:08;;;;;;;4.35;2.53;;;16.90;99.90;;;;;;5019424;28;20204;-71
2021/08/29 12:46:39;;;;;;;8.20;2.50;;;17.00;99.90;;;;;;5020397;28;20260;-72
2021/08/29 12:49:06;;;;;;;9.25;3.00;;;16.80;99.90;;;;;;5024258;28;20825;-71
2021/08/29 12:51:33;;;;;;;7.95;2.88;;;16.80;99.90;;;;;;5023091;28;20302;-73